createdAt,value
2019-05-20T00:00:36.619Z,99927.96
2019-05-20T00:03:09.598Z,99936.05
2019-05-20T00:05:42.792Z,99931.63
2019-05-20T00:08:15.808Z,99931.48
2019-05-20T00:10:48.716Z,99937.80
2019-05-20T00:13:21.692Z,99937.48
2019-05-20T00:15:54.490Z,99942.36
2019-05-20T00:18:27.358Z,99937.93
2019-05-20T00:21:00.180Z,99939.00
2019-05-20T00:23:33.110Z,99935.95
2019-05-20T00:26:05.993Z,99934.18
2019-05-20T00:28:38.856Z,99925.80
2019-05-20T00:31:12.258Z,99924.93
2019-05-20T00:33:45.143Z,99927.13
2019-05-20T00:36:18.115Z,99925.00
2019-05-20T00:39:08.850Z,99916.94
2019-05-20T00:41:41.676Z,99918.66
2019-05-20T00:44:14.623Z,99909.89
2019-05-20T00:46:47.452Z,99905.04
2019-05-20T00:49:20.367Z,99909.47
2019-05-20T00:51:53.279Z,99910.41
2019-05-20T00:54:26.074Z,99908.22
2019-05-20T00:56:58.873Z,99913.55
2019-05-20T00:59:31.785Z,99911.77
2019-05-20T01:02:04.647Z,99911.35
2019-05-20T01:04:37.645Z,99907.38
2019-05-20T01:07:10.739Z,99908.70
2019-05-20T01:09:43.519Z,99912.19
2019-05-20T01:12:16.396Z,99912.29
2019-05-20T01:14:49.223Z,99906.98
2019-05-20T01:17:22.086Z,99906.24
2019-05-20T01:19:54.920Z,99900.94
2019-05-20T01:22:27.788Z,99900.91
2019-05-20T01:25:01.707Z,99902.66
2019-05-20T01:27:34.554Z,99896.93
2019-05-20T01:30:07.681Z,99896.22
2019-05-20T01:32:41.917Z,99892.80
2019-05-20T01:35:16.214Z,99892.41
2019-05-20T01:37:49.108Z,99886.27
2019-05-20T01:40:21.984Z,99889.36
2019-05-20T01:42:55.290Z,99896.12
2019-05-20T01:45:28.107Z,99885.70
2019-05-20T01:48:00.923Z,99885.83
2019-05-20T01:50:33.775Z,99878.87
2019-05-20T01:53:06.570Z,99880.81
2019-05-20T01:55:39.424Z,99879.64
2019-05-20T01:58:12.564Z,99876.59
2019-05-20T02:00:45.446Z,99869.77
2019-05-20T02:03:31.004Z,99875.67
2019-05-20T02:05:52.998Z,99882.34
2019-05-20T02:08:25.838Z,99885.02
2019-05-20T02:10:58.723Z,99868.92
2019-05-20T02:13:56.930Z,99863.06
2019-05-20T02:16:29.789Z,99857.91
2019-05-20T02:19:02.599Z,99857.58
2019-05-20T02:21:35.669Z,99857.63
2019-05-20T02:24:09.572Z,99858.05
2019-05-20T02:26:42.498Z,99856.70
2019-05-20T02:29:15.320Z,99858.39
2019-05-20T02:31:48.372Z,99853.92
2019-05-20T02:34:21.139Z,99855.16
2019-05-20T02:36:53.967Z,99858.22
2019-05-20T02:39:27.084Z,99859.55
2019-05-20T02:41:59.938Z,99855.58
2019-05-20T02:44:32.756Z,99854.58
2019-05-20T02:47:06.686Z,99855.41
2019-05-20T02:49:39.493Z,99855.26
2019-05-20T02:52:12.359Z,99851.19
2019-05-20T02:54:45.170Z,99846.41
2019-05-20T02:57:18.024Z,99850.74
2019-05-20T02:59:50.887Z,99846.31
2019-05-20T03:02:23.704Z,99849.03
2019-05-20T03:04:56.641Z,99843.73
2019-05-20T03:07:29.445Z,99842.50
2019-05-20T03:10:02.345Z,99843.79
2019-05-20T03:12:36.299Z,99837.59
2019-05-20T03:15:09.343Z,99846.55
2019-05-20T03:17:42.141Z,99843.66
2019-05-20T03:20:15.378Z,99851.13
2019-05-20T03:22:48.612Z,99853.07
2019-05-20T03:25:21.593Z,99853.09
2019-05-20T03:27:54.424Z,99850.88
2019-05-20T03:30:27.295Z,99841.49
2019-05-20T03:33:00.101Z,99840.95
2019-05-20T03:35:32.988Z,99844.33
2019-05-20T03:38:05.831Z,99826.91
2019-05-20T03:40:38.605Z,99829.47
2019-05-20T03:43:11.511Z,99827.45
2019-05-20T03:45:44.427Z,99823.45
2019-05-20T03:48:17.230Z,99814.89
2019-05-20T03:50:50.133Z,99819.70
2019-05-20T03:53:23.390Z,99813.80
2019-05-20T03:55:56.188Z,99807.50
2019-05-20T03:58:29.086Z,99808.66
2019-05-20T04:01:01.958Z,99805.55
2019-05-20T04:03:34.868Z,99806.36
2019-05-20T04:06:07.677Z,99809.69
2019-05-20T04:08:40.613Z,99805.65
2019-05-20T04:11:13.424Z,99803.22
2019-05-20T04:13:46.260Z,99806.70
2019-05-20T04:16:19.135Z,99802.11
2019-05-20T04:18:54.275Z,99798.20
2019-05-20T04:21:26.434Z,99804.86
2019-05-20T04:24:01.420Z,99794.98
2019-05-20T04:26:33.894Z,99797.77
2019-05-20T04:29:06.804Z,99794.70
2019-05-20T04:31:39.672Z,99806.04
2019-05-20T04:34:12.494Z,99801.45
2019-05-20T04:36:45.370Z,99800.88
2019-05-20T04:39:18.197Z,99803.08
2019-05-20T04:41:50.997Z,99802.47
2019-05-20T04:44:23.926Z,99801.97
2019-05-20T04:46:58.070Z,99801.78
2019-05-20T04:49:31.096Z,99804.04
2019-05-20T04:52:04.018Z,99806.30
2019-05-20T04:54:36.861Z,99795.59
2019-05-20T04:57:09.857Z,99797.05
2019-05-20T04:59:42.654Z,99797.41
2019-05-20T05:02:15.544Z,99794.73
2019-05-20T05:04:48.368Z,99795.21
2019-05-20T05:07:21.243Z,99795.05
2019-05-20T05:09:54.111Z,99794.08
2019-05-20T05:12:27.020Z,99793.58
2019-05-20T05:14:59.798Z,99802.20
2019-05-20T05:17:32.640Z,99796.84
2019-05-20T05:20:05.892Z,99799.41
2019-05-20T05:22:39.185Z,99793.83
2019-05-20T05:25:13.275Z,99802.31
2019-05-20T05:27:46.036Z,99799.40
2019-05-20T05:30:18.992Z,99802.97
2019-05-20T05:32:51.936Z,99798.39
2019-05-20T05:35:24.856Z,99805.23
2019-05-20T05:37:57.834Z,99795.42
2019-05-20T05:40:32.422Z,99791.07
2019-05-20T05:43:05.380Z,99786.18
2019-05-20T05:45:39.251Z,99777.95
2019-05-20T05:48:12.373Z,99774.90
2019-05-20T05:50:45.217Z,99773.78
2019-05-20T05:53:18.054Z,99779.37
2019-05-20T05:55:50.888Z,99774.85
2019-05-20T05:58:23.768Z,99770.38
2019-05-20T06:00:56.638Z,99769.52
2019-05-20T06:03:29.562Z,99763.39
2019-05-20T06:06:12.280Z,99764.80
2019-05-20T06:08:37.286Z,99755.56
2019-05-20T06:11:10.075Z,99751.75
2019-05-20T06:13:42.977Z,99751.04
2019-05-20T06:16:15.853Z,99742.48
2019-05-20T06:18:48.688Z,99751.47
2019-05-20T06:21:21.466Z,99757.02
2019-05-20T06:23:54.304Z,99749.31
2019-05-20T06:26:27.067Z,99753.17
2019-05-20T06:29:02.906Z,99754.77
2019-05-20T06:31:34.446Z,99744.92
2019-05-20T06:34:07.234Z,99737.20
2019-05-20T06:36:44.484Z,99736.97
2019-05-20T06:39:17.327Z,99735.89
2019-05-20T06:41:50.132Z,99716.48
2019-05-20T06:44:23.101Z,99720.70
2019-05-20T06:46:56.046Z,99721.64
2019-05-20T06:49:29.043Z,99717.90
2019-05-20T06:52:01.951Z,99720.56
2019-05-20T06:54:34.813Z,99716.47
2019-05-20T06:57:07.722Z,99716.27
2019-05-20T06:59:41.707Z,99707.38
2019-05-20T07:02:14.546Z,99708.88
2019-05-20T07:04:47.441Z,99717.53
2019-05-20T07:07:21.453Z,99716.34
2019-05-20T07:09:55.535Z,99717.12
2019-05-20T07:12:40.511Z,99710.80
2019-05-20T07:15:04.205Z,99716.39
2019-05-20T07:17:38.592Z,99713.80
2019-05-20T07:20:11.457Z,99704.68
2019-05-20T07:22:55.152Z,99698.70
2019-05-20T07:25:19.518Z,99700.55
2019-05-20T07:27:52.450Z,99697.84
2019-05-20T07:30:25.458Z,99696.31
2019-05-20T07:32:58.311Z,99693.78
2019-05-20T07:35:31.558Z,99693.62
2019-05-20T07:38:04.658Z,99698.31
2019-05-20T07:40:37.725Z,99697.89
2019-05-20T07:43:10.528Z,99698.75
2019-05-20T07:45:43.873Z,99696.07
2019-05-20T07:48:17.673Z,99696.41
2019-05-20T07:50:51.023Z,99689.22
2019-05-20T07:53:24.408Z,99689.95
2019-05-20T07:56:07.104Z,99693.34
2019-05-20T07:58:43.419Z,99691.53
2019-05-20T08:01:16.393Z,99693.00
2019-05-20T08:03:49.178Z,99691.05
2019-05-20T08:06:22.369Z,99694.88
2019-05-20T08:08:55.321Z,99696.62
2019-05-20T08:11:28.271Z,99697.97
2019-05-20T08:14:01.065Z,99701.77
2019-05-20T08:16:34.239Z,99703.64
2019-05-20T08:19:07.293Z,99684.04
2019-05-20T08:21:40.093Z,99690.80
2019-05-20T08:24:12.968Z,99695.55
2019-05-20T08:26:45.934Z,99685.91
2019-05-20T08:29:18.720Z,99693.83
2019-05-20T08:31:51.498Z,99676.29
2019-05-20T08:34:24.349Z,99678.37
2019-05-20T08:36:57.118Z,99666.31
2019-05-20T08:39:29.936Z,99677.38
2019-05-20T08:42:02.739Z,99677.72
2019-05-20T08:44:35.717Z,99687.44
2019-05-20T08:47:08.607Z,99691.05
2019-05-20T08:49:41.598Z,99684.91
2019-05-20T08:52:15.875Z,99666.85
2019-05-20T08:54:48.734Z,99670.53
2019-05-20T08:57:21.503Z,99682.39
2019-05-20T08:59:54.388Z,99691.19
2019-05-20T09:02:27.231Z,99690.58
2019-05-20T09:05:00.084Z,99693.00
2019-05-20T09:07:32.871Z,99697.27
2019-05-20T09:10:06.189Z,99696.50
2019-05-20T09:12:39.360Z,99694.00
2019-05-20T09:15:12.747Z,99687.40
2019-05-20T09:17:45.663Z,99678.36
2019-05-20T09:20:19.586Z,99680.36
2019-05-20T09:22:52.608Z,99671.73
2019-05-20T09:25:32.917Z,99667.30
2019-05-20T09:28:06.102Z,99664.70
2019-05-20T09:30:39.647Z,99665.89
2019-05-20T09:33:12.951Z,99664.59
2019-05-20T09:35:45.845Z,99669.38
2019-05-20T09:38:21.608Z,99650.80
2019-05-20T09:40:54.532Z,99675.14
2019-05-20T09:43:27.413Z,99658.44
2019-05-20T09:46:07.823Z,99665.37
2019-05-20T09:48:35.019Z,99658.27
2019-05-20T09:51:08.208Z,99666.13
2019-05-20T09:53:41.075Z,99665.95
2019-05-20T09:56:13.966Z,99676.94
2019-05-20T09:58:46.791Z,99680.95
2019-05-20T10:01:19.673Z,99681.83
2019-05-20T10:03:52.611Z,99669.00
2019-05-20T10:06:26.367Z,99663.23
2019-05-20T10:08:59.310Z,99662.62
2019-05-20T10:11:32.443Z,99670.00
2019-05-20T10:14:05.314Z,99679.55
2019-05-20T10:16:38.086Z,99668.45
2019-05-20T10:19:10.859Z,99662.78
2019-05-20T10:21:43.826Z,99667.92
2019-05-20T10:24:16.805Z,99672.25
2019-05-20T10:26:49.744Z,99662.75
2019-05-20T10:29:22.616Z,99666.58
2019-05-20T10:31:55.459Z,99666.37
2019-05-20T10:34:28.309Z,99670.91
2019-05-20T10:37:01.204Z,99667.84
2019-05-20T10:39:34.094Z,99668.39
2019-05-20T10:42:06.869Z,99670.58
2019-05-20T10:44:41.871Z,99669.45
2019-05-20T10:47:14.166Z,99660.47
2019-05-20T10:49:47.938Z,99644.64
2019-05-20T10:52:20.774Z,99639.45
2019-05-20T10:54:53.700Z,99639.27
2019-05-20T10:57:26.576Z,99630.86
2019-05-20T10:59:59.578Z,99646.26
2019-05-20T11:02:32.441Z,99665.80
2019-05-20T11:05:05.953Z,99677.00
2019-05-20T11:07:38.801Z,99681.00
2019-05-20T11:10:11.944Z,99678.03
2019-05-20T11:12:44.809Z,99674.23
2019-05-20T11:15:17.992Z,99675.60
2019-05-20T11:17:51.008Z,99680.05
2019-05-20T11:20:23.817Z,99692.95
2019-05-20T11:22:58.887Z,99690.52
2019-05-20T11:25:31.269Z,99687.11
2019-05-20T11:28:04.047Z,99687.58
2019-05-20T11:30:37.027Z,99690.64
2019-05-20T11:33:09.875Z,99690.38
2019-05-20T11:35:42.746Z,99694.00
2019-05-20T11:38:16.494Z,99684.42
2019-05-20T11:40:50.507Z,99684.59
2019-05-20T11:43:23.303Z,99678.57
2019-05-20T11:45:56.138Z,99678.86
2019-05-20T11:48:29.268Z,99673.30
2019-05-20T11:51:02.174Z,99670.36
2019-05-20T11:53:35.151Z,99658.37
2019-05-20T11:56:11.801Z,99656.90
2019-05-20T11:58:42.817Z,99666.06
2019-05-20T12:01:15.741Z,99674.09
2019-05-20T12:03:48.608Z,99660.52
2019-05-20T12:06:21.726Z,99654.23
2019-05-20T12:08:54.595Z,99657.00
2019-05-20T12:11:27.430Z,99643.37
2019-05-20T12:14:00.270Z,99652.66
2019-05-20T12:16:33.105Z,99651.04
2019-05-20T12:19:05.961Z,99650.76
2019-05-20T12:21:38.796Z,99655.17
2019-05-20T12:24:11.627Z,99649.73
2019-05-20T12:26:45.509Z,99644.06
2019-05-20T12:29:18.429Z,99646.34
2019-05-20T12:31:51.268Z,99641.92
2019-05-20T12:34:24.114Z,99650.24
2019-05-20T12:36:56.941Z,99650.06
2019-05-20T12:39:29.888Z,99639.40
2019-05-20T12:42:02.923Z,99638.13
2019-05-20T12:44:35.849Z,99630.38
2019-05-20T12:47:08.781Z,99638.51
2019-05-20T12:49:41.654Z,99646.80
2019-05-20T12:52:14.504Z,99646.47
2019-05-20T12:55:04.123Z,99645.96
2019-05-20T12:57:21.937Z,99649.33
2019-05-20T12:59:54.845Z,99644.85
2019-05-20T13:02:27.772Z,99643.13
2019-05-20T13:05:00.745Z,99648.18
2019-05-20T13:07:33.695Z,99629.77
2019-05-20T13:10:26.639Z,99632.09
2019-05-20T13:12:43.379Z,99622.50
2019-05-20T13:15:16.652Z,99627.69
2019-05-20T13:17:49.454Z,99631.30
2019-05-20T13:20:23.093Z,99620.91
2019-05-20T13:22:55.931Z,99622.42
2019-05-20T13:25:28.770Z,99630.92
2019-05-20T13:28:01.655Z,99612.89
2019-05-20T13:46:54.679Z,99620.84
2019-05-20T13:49:30.497Z,99617.28
2019-05-20T13:52:09.663Z,99625.98
2019-05-20T13:54:42.827Z,99624.17
2019-05-20T13:57:15.803Z,99624.90
2019-05-20T13:59:49.829Z,99621.02
2019-05-20T14:02:24.095Z,99618.74
2019-05-20T14:04:56.983Z,99616.57
2019-05-20T14:07:29.906Z,99619.65
2019-05-20T14:10:02.831Z,99630.84
2019-05-20T14:12:36.719Z,99619.56
2019-05-20T14:15:11.526Z,99608.43
2019-05-20T14:17:44.906Z,99618.70
2019-05-20T14:20:18.230Z,99624.92
2019-05-20T14:22:51.594Z,99623.00
2019-05-20T14:25:24.690Z,99625.11
2019-05-20T14:27:57.700Z,99621.35
2019-05-20T14:30:30.699Z,99619.84
2019-05-20T14:33:03.869Z,99617.41
2019-05-20T14:35:37.086Z,99619.25
2019-05-20T14:38:11.661Z,99625.97
2019-05-20T14:40:45.107Z,99631.91
2019-05-20T14:43:17.982Z,99640.64
2019-05-20T14:45:53.726Z,99642.25
2019-05-20T14:48:26.692Z,99649.66
2019-05-20T14:50:59.682Z,99668.77
2019-05-20T14:53:32.957Z,99669.59
2019-05-20T14:56:07.939Z,99686.73
2019-05-20T14:58:41.170Z,99688.84
2019-05-20T15:01:14.321Z,99698.48
2019-05-20T15:03:47.453Z,99708.25
2019-05-20T15:06:20.485Z,99712.92
2019-05-20T15:08:53.599Z,99718.58
2019-05-20T15:11:37.745Z,99717.90
2019-05-20T15:14:01.036Z,99712.03
2019-05-20T15:16:36.916Z,99715.27
2019-05-20T15:19:10.127Z,99707.70
2019-05-20T15:21:43.178Z,99713.56
2019-05-20T15:24:16.512Z,99708.33
2019-05-20T15:26:52.849Z,99706.44
2019-05-20T15:29:28.323Z,99703.00
2019-05-20T15:32:00.374Z,99709.54
2019-05-20T15:34:33.273Z,99709.75
2019-05-20T15:37:07.230Z,99706.20
2019-05-20T15:39:40.108Z,99711.19
2019-05-20T15:42:12.994Z,99715.58
2019-05-20T15:44:46.212Z,99711.63
2019-05-20T15:47:19.262Z,99711.34
2019-05-20T15:49:52.246Z,99715.33
2019-05-20T15:52:25.248Z,99712.48
2019-05-20T15:54:58.211Z,99706.56
2019-05-20T15:57:31.085Z,99704.02
2019-05-20T16:00:04.022Z,99702.95
2019-05-20T16:02:38.429Z,99701.89
2019-05-20T16:05:11.405Z,99702.56
2019-05-20T16:07:44.408Z,99696.39
2019-05-20T16:10:17.270Z,99701.50
2019-05-20T16:12:50.161Z,99698.94
2019-05-20T16:15:23.100Z,99708.52
2019-05-20T16:17:56.766Z,99719.55
2019-05-20T16:20:29.809Z,99731.23
2019-05-20T16:23:03.073Z,99732.96
2019-05-20T16:25:36.155Z,99727.40
2019-05-20T16:28:09.128Z,99731.25
2019-05-20T16:30:43.007Z,99731.50
2019-05-20T16:33:16.101Z,99727.48
2019-05-20T16:35:49.217Z,99723.23
2019-05-20T16:38:22.245Z,99735.83
2019-05-20T16:40:55.319Z,99739.30
2019-05-20T16:43:28.185Z,99741.98
2019-05-20T16:46:01.037Z,99737.88
2019-05-20T16:48:34.975Z,99749.41
2019-05-20T16:51:07.908Z,99749.13
2019-05-20T16:53:41.026Z,99747.10
2019-05-20T16:56:14.049Z,99742.33
2019-05-20T16:58:46.995Z,99743.38
2019-05-20T17:01:19.940Z,99739.22
2019-05-20T17:03:52.977Z,99745.75
2019-05-20T17:06:27.630Z,99743.94
2019-05-20T17:09:00.944Z,99733.94
2019-05-20T17:11:35.789Z,99737.32
2019-05-20T17:14:10.663Z,99734.34
2019-05-20T17:16:43.733Z,99733.00
2019-05-20T17:19:16.727Z,99734.94
2019-05-20T17:21:49.715Z,99737.10
2019-05-20T17:24:22.657Z,99738.96
2019-05-20T17:26:55.716Z,99743.17
2019-05-20T17:29:28.849Z,99743.65
2019-05-20T17:32:01.882Z,99747.11
2019-05-20T17:34:35.003Z,99752.39
2019-05-20T17:37:09.248Z,99747.33
2019-05-20T17:39:42.297Z,99738.42
2019-05-20T17:42:15.451Z,99741.53
2019-05-20T17:44:48.388Z,99740.98
2019-05-20T17:47:21.493Z,99738.38
2019-05-20T17:49:54.466Z,99741.61
2019-05-20T17:52:27.379Z,99740.48
2019-05-20T17:55:00.289Z,99739.61
2019-05-20T17:57:33.425Z,99740.31
2019-05-20T18:00:08.892Z,99748.22
2019-05-20T18:02:42.702Z,99756.52
2019-05-20T18:05:15.719Z,99763.55
2019-05-20T18:07:48.719Z,99765.76
2019-05-20T18:10:24.787Z,99771.27
2019-05-20T18:12:57.704Z,99763.02
2019-05-20T18:15:30.642Z,99763.48
2019-05-20T18:18:03.495Z,99764.61
2019-05-20T18:20:36.318Z,99770.11
2019-05-20T18:23:09.238Z,99769.89
2019-05-20T18:25:42.151Z,99768.55
2019-05-20T18:28:15.129Z,99771.16
2019-05-20T18:30:48.109Z,99773.06
2019-05-20T18:33:21.071Z,99775.98
2019-05-20T18:35:55.099Z,99780.02
2019-05-20T18:38:28.135Z,99782.09
2019-05-20T18:41:01.159Z,99777.81
2019-05-20T18:43:34.181Z,99783.47
2019-05-20T18:46:07.122Z,99777.73
2019-05-20T18:48:40.032Z,99783.68
2019-05-20T18:51:13.101Z,99789.27
2019-05-20T18:53:46.107Z,99797.52
2019-05-20T18:56:19.152Z,99790.80
2019-05-20T18:58:52.215Z,99803.59
2019-05-20T19:01:25.150Z,99798.41
2019-05-20T19:03:58.215Z,99801.84
2019-05-20T19:06:31.279Z,99801.17
2019-05-20T19:09:05.169Z,99798.52
2019-05-20T19:11:38.332Z,99801.48
2019-05-20T19:14:11.256Z,99801.89
2019-05-20T19:16:44.232Z,99806.06
2019-05-20T19:19:17.079Z,99811.22
2019-05-20T19:21:49.922Z,99801.76
2019-05-20T19:24:22.830Z,99805.77
2019-05-20T19:26:55.760Z,99801.98
2019-05-20T19:29:28.671Z,99800.39
2019-05-20T19:32:02.413Z,99799.64
2019-05-20T19:34:35.493Z,99797.94
2019-05-20T19:37:08.550Z,99801.60
2019-05-20T19:39:41.475Z,99799.27
2019-05-20T19:42:14.485Z,99800.06
2019-05-20T19:44:47.356Z,99803.16
2019-05-20T19:47:20.352Z,99809.66
2019-05-20T19:49:53.347Z,99804.72
2019-05-20T19:52:26.478Z,99807.60
2019-05-20T19:54:59.395Z,99809.25
2019-05-20T19:57:32.435Z,99811.38
2019-05-20T20:00:06.383Z,99803.64
2019-05-20T20:02:40.814Z,99809.53
2019-05-20T20:05:13.647Z,99804.92
2019-05-20T20:07:46.659Z,99805.98
2019-05-20T20:10:20.078Z,99808.23
2019-05-20T20:12:53.087Z,99806.50
2019-05-20T20:15:26.030Z,99809.77
2019-05-20T20:17:59.039Z,99801.88
2019-05-20T20:20:33.311Z,99803.62
2019-05-20T20:23:06.137Z,99803.76
2019-05-20T20:25:39.182Z,99805.35
2019-05-20T20:28:12.050Z,99807.80
2019-05-20T20:30:44.987Z,99811.95
2019-05-20T20:33:18.945Z,99808.95
2019-05-20T20:35:52.351Z,99806.94
2019-05-20T20:38:25.238Z,99800.11
2019-05-20T20:40:58.092Z,99801.45
2019-05-20T20:43:32.224Z,99800.17
2019-05-20T20:46:05.317Z,99797.16
2019-05-20T20:48:38.212Z,99798.08
2019-05-20T20:51:11.182Z,99798.89
2019-05-20T20:53:44.173Z,99798.84
2019-05-20T20:56:25.367Z,99795.59
2019-05-20T20:58:51.901Z,99798.20
2019-05-20T21:01:24.813Z,99802.66
2019-05-20T21:03:57.911Z,99806.83
2019-05-20T21:06:30.793Z,99804.55
2019-05-20T21:09:04.681Z,99803.63
2019-05-20T21:11:37.748Z,99804.91
2019-05-20T21:14:10.647Z,99800.59
2019-05-20T21:16:43.560Z,99801.19
2019-05-20T21:19:16.381Z,99795.86
2019-05-20T21:21:49.269Z,99789.21
2019-05-20T21:24:22.326Z,99794.58
2019-05-20T21:26:55.122Z,99797.24
2019-05-20T21:29:27.954Z,99798.23
2019-05-20T21:32:00.869Z,99790.13
2019-05-20T21:34:33.750Z,99801.14
2019-05-20T21:37:06.623Z,99793.61
2019-05-20T21:39:39.473Z,99794.25
2019-05-20T21:42:12.504Z,99797.13
2019-05-20T21:44:45.394Z,99787.87
2019-05-20T21:47:18.362Z,99787.55
2019-05-20T21:49:51.252Z,99784.62
2019-05-20T21:52:24.223Z,99790.05
2019-05-20T21:54:57.015Z,99789.84
2019-05-20T21:57:29.931Z,99787.91
2019-05-20T22:00:02.807Z,99790.27
2019-05-20T22:02:37.210Z,99789.23
2019-05-20T22:05:10.534Z,99789.28
2019-05-20T22:07:43.395Z,99793.42
2019-05-20T22:10:16.312Z,99787.48
2019-05-20T22:12:49.180Z,99787.31
2019-05-20T22:15:22.200Z,99782.32
2019-05-20T22:17:55.291Z,99776.86
2019-05-20T22:20:28.101Z,99787.98
2019-05-20T22:23:22.821Z,99782.30
2019-05-20T22:25:55.691Z,99780.67
2019-05-20T22:28:28.763Z,99782.57
2019-05-20T22:31:01.682Z,99781.89
2019-05-20T22:33:41.314Z,99775.75
2019-05-20T22:36:09.281Z,99777.04
2019-05-20T22:38:42.188Z,99779.13
2019-05-20T22:41:15.158Z,99774.16
2019-05-20T22:43:48.341Z,99773.32
2019-05-20T22:46:21.278Z,99778.06
2019-05-20T22:48:54.207Z,99778.63
2019-05-20T22:51:27.126Z,99779.13
2019-05-20T22:54:00.105Z,99787.28
2019-05-20T22:56:33.269Z,99787.66
2019-05-20T22:59:06.149Z,99792.50
2019-05-20T23:01:39.085Z,99792.22
2019-05-20T23:04:12.091Z,99793.48
2019-05-20T23:06:45.175Z,99797.16
2019-05-20T23:09:18.016Z,99800.40
2019-05-20T23:11:50.995Z,99800.47
2019-05-20T23:14:23.988Z,99806.61
2019-05-20T23:16:56.887Z,99801.41
2019-05-20T23:19:29.789Z,99806.23
2019-05-20T23:22:02.931Z,99801.86
2019-05-20T23:24:36.053Z,99805.88
2019-05-20T23:27:08.865Z,99811.63
2019-05-20T23:29:41.756Z,99809.36
2019-05-20T23:32:14.545Z,99808.04
2019-05-20T23:34:47.402Z,99811.45
2019-05-20T23:37:20.296Z,99807.97
2019-05-20T23:39:53.246Z,99813.17
2019-05-20T23:42:26.158Z,99811.95
2019-05-20T23:44:58.937Z,99814.25
2019-05-20T23:47:31.799Z,99813.27
2019-05-20T23:50:04.803Z,99813.66
2019-05-20T23:52:37.603Z,99811.04
2019-05-20T23:55:11.049Z,99813.34
2019-05-20T23:57:43.907Z,99814.80
